createdAt,value
2017-07-06T00:00:04.228Z,940.96
2017-07-06T00:00:32.327Z,940.93
2017-07-06T00:01:00.528Z,940.94
2017-07-06T00:01:28.867Z,940.96
2017-07-06T00:01:56.987Z,940.95
2017-07-06T00:02:25.188Z,940.96
2017-07-06T00:02:53.390Z,940.95
2017-07-06T00:03:21.527Z,940.99
2017-07-06T00:03:49.766Z,940.97
2017-07-06T00:04:17.773Z,940.98
2017-07-06T00:04:45.874Z,940.98
2017-07-06T00:05:14.016Z,940.97
2017-07-06T00:05:42.127Z,940.95
2017-07-06T00:06:10.232Z,940.96
2017-07-06T00:06:38.588Z,940.94
2017-07-06T00:07:06.833Z,940.94
2017-07-06T00:07:34.972Z,940.93
2017-07-06T00:08:03.155Z,940.96
2017-07-06T00:08:31.150Z,940.97
2017-07-06T00:08:59.379Z,940.93
2017-07-06T00:09:27.551Z,940.96
2017-07-06T00:09:55.624Z,940.96
2017-07-06T00:10:23.662Z,940.94
2017-07-06T00:10:51.858Z,940.94
2017-07-06T00:11:20.085Z,940.94
2017-07-06T00:11:48.390Z,940.93
2017-07-06T00:12:16.588Z,940.95
2017-07-06T00:12:44.732Z,940.93
2017-07-06T00:13:12.897Z,940.93
2017-07-06T00:13:41.083Z,940.95
2017-07-06T00:14:09.308Z,940.94
2017-07-06T00:14:37.447Z,940.95
2017-07-06T00:15:05.671Z,940.95
2017-07-06T00:15:33.840Z,940.93
2017-07-06T00:16:01.916Z,940.94
2017-07-06T00:16:30.226Z,940.93
2017-07-06T00:16:58.355Z,940.91
2017-07-06T00:17:26.477Z,940.92
2017-07-06T00:17:54.678Z,940.97
2017-07-06T00:18:22.778Z,940.91
2017-07-06T00:18:50.875Z,940.92
2017-07-06T00:19:19.069Z,940.91
2017-07-06T00:19:47.167Z,940.89
2017-07-06T00:20:15.411Z,940.89
2017-07-06T00:20:43.470Z,940.9
2017-07-06T00:21:11.371Z,940.88
2017-07-06T00:21:39.710Z,940.9
2017-07-06T00:22:07.830Z,940.91
2017-07-06T00:22:35.952Z,940.9
2017-07-06T00:23:04.100Z,940.9
2017-07-06T00:23:32.313Z,940.91
2017-07-06T00:24:00.526Z,940.9
2017-07-06T00:24:28.721Z,940.88
2017-07-06T00:24:56.747Z,940.92
2017-07-06T00:25:24.625Z,940.91
2017-07-06T00:25:52.721Z,940.91
2017-07-06T00:26:20.894Z,940.92
2017-07-06T00:26:49.108Z,940.87
2017-07-06T00:27:17.295Z,940.91
2017-07-06T00:27:45.397Z,940.92
2017-07-06T00:28:13.615Z,940.89
2017-07-06T00:28:41.769Z,940.89
2017-07-06T00:29:09.959Z,940.89
2017-07-06T00:29:38.139Z,940.9
2017-07-06T00:30:06.247Z,940.91
2017-07-06T00:30:34.365Z,940.89
2017-07-06T00:31:02.481Z,940.9
2017-07-06T00:31:30.693Z,940.91
2017-07-06T00:31:58.794Z,940.93
2017-07-06T00:32:26.912Z,940.92
2017-07-06T00:32:54.823Z,940.92
2017-07-06T00:33:22.899Z,940.93
2017-07-06T00:33:50.789Z,940.92
2017-07-06T00:34:18.988Z,940.94
2017-07-06T00:34:47.220Z,940.93
2017-07-06T00:35:15.472Z,940.93
2017-07-06T00:35:43.593Z,940.93
2017-07-06T00:36:11.774Z,940.9
2017-07-06T00:36:39.803Z,940.93
2017-07-06T00:37:07.950Z,940.93
2017-07-06T00:37:36.123Z,940.92
2017-07-06T00:38:04.316Z,940.9
2017-07-06T00:38:32.487Z,940.92
2017-07-06T00:39:00.557Z,940.92
2017-07-06T00:39:28.723Z,940.88
2017-07-06T00:39:56.614Z,940.86
2017-07-06T00:40:24.729Z,940.86
2017-07-06T00:40:52.777Z,940.86
2017-07-06T00:41:20.874Z,940.87
2017-07-06T00:41:49.125Z,940.89
2017-07-06T00:42:17.114Z,940.85
2017-07-06T00:42:45.190Z,940.86
2017-07-06T00:43:13.284Z,940.81
2017-07-06T00:43:41.387Z,940.83
2017-07-06T00:44:09.473Z,940.82
2017-07-06T00:44:37.391Z,940.83
2017-07-06T00:45:05.288Z,940.79
2017-07-06T00:45:33.748Z,940.8
2017-07-06T00:46:01.977Z,940.8
2017-07-06T00:46:30.085Z,940.82
2017-07-06T00:46:58.201Z,940.77
2017-07-06T00:47:26.308Z,940.82
2017-07-06T00:47:54.279Z,940.79
2017-07-06T00:48:22.266Z,940.81
2017-07-06T00:48:50.497Z,940.79
2017-07-06T00:49:18.509Z,940.83
2017-07-06T00:49:46.712Z,940.83
2017-07-06T00:50:14.985Z,940.81
2017-07-06T00:50:43.005Z,940.83
2017-07-06T00:51:11.022Z,940.82
2017-07-06T00:51:39.185Z,940.85
2017-07-06T00:52:07.372Z,940.83
2017-07-06T00:52:35.401Z,940.88
2017-07-06T00:53:03.599Z,940.84
2017-07-06T00:53:31.589Z,940.86
2017-07-06T00:53:59.812Z,940.84
2017-07-06T00:54:27.897Z,940.86
2017-07-06T00:54:56.074Z,940.88
2017-07-06T00:55:24.138Z,940.86
2017-07-06T00:55:52.260Z,940.84
2017-07-06T00:56:20.152Z,940.86
2017-07-06T00:56:48.129Z,940.84
2017-07-06T00:57:16.444Z,940.86
2017-07-06T00:57:44.637Z,940.87
2017-07-06T00:58:12.738Z,940.88
2017-07-06T00:58:41.005Z,940.86
2017-07-06T00:59:09.242Z,940.86
2017-07-06T00:59:37.474Z,940.89
2017-07-06T01:00:05.671Z,940.87
2017-07-06T01:00:33.931Z,940.88
2017-07-06T01:01:02.135Z,940.89
2017-07-06T01:01:30.344Z,940.9
2017-07-06T01:01:58.640Z,940.9
2017-07-06T01:02:26.644Z,940.91
2017-07-06T01:02:54.691Z,940.89
2017-07-06T01:03:22.797Z,940.9
2017-07-06T01:03:50.957Z,940.88
2017-07-06T01:04:18.926Z,940.93
2017-07-06T01:04:47.022Z,940.92
2017-07-06T01:05:15.090Z,940.93
2017-07-06T01:05:43.304Z,940.88
2017-07-06T01:06:11.487Z,940.9
2017-07-06T01:06:39.515Z,940.91
2017-07-06T01:07:07.906Z,940.89
2017-07-06T01:07:35.955Z,940.93
2017-07-06T01:08:03.924Z,940.92
2017-07-06T01:08:31.829Z,940.9
2017-07-06T01:09:00.059Z,940.9
2017-07-06T01:09:28.030Z,940.9
2017-07-06T01:09:56.238Z,940.92
2017-07-06T01:10:24.411Z,940.89
2017-07-06T01:10:52.548Z,940.89
2017-07-06T01:11:20.713Z,940.91
2017-07-06T01:11:48.959Z,940.89
2017-07-06T01:12:17.344Z,940.89
2017-07-06T01:12:45.519Z,940.91
2017-07-06T01:13:13.673Z,940.93
2017-07-06T01:13:41.749Z,940.9
2017-07-06T01:14:09.780Z,940.9
2017-07-06T01:14:38.046Z,940.93
2017-07-06T01:15:06.177Z,940.93
2017-07-06T01:15:34.165Z,940.89
2017-07-06T01:16:02.280Z,940.9
2017-07-06T01:16:30.458Z,940.87
2017-07-06T01:16:58.540Z,940.89
2017-07-06T01:17:26.711Z,940.89
2017-07-06T01:17:54.839Z,940.9
2017-07-06T01:18:23.025Z,940.86
2017-07-06T01:18:51.055Z,940.9
2017-07-06T01:19:19.044Z,940.85
2017-07-06T01:19:47.037Z,940.9
2017-07-06T01:20:15.118Z,940.94
2017-07-06T01:20:43.324Z,940.92
2017-07-06T01:21:11.422Z,940.91
2017-07-06T01:21:39.436Z,940.9
2017-07-06T01:22:07.464Z,940.92
2017-07-06T01:22:35.811Z,940.88
2017-07-06T01:23:03.800Z,940.89
2017-07-06T01:23:31.818Z,940.87
2017-07-06T01:23:59.693Z,940.89
2017-07-06T01:24:27.895Z,940.86
2017-07-06T01:24:56.116Z,940.9
2017-07-06T01:25:24.040Z,940.85
2017-07-06T01:25:52.275Z,940.89
2017-07-06T01:26:20.356Z,940.89
2017-07-06T01:26:48.576Z,940.88
2017-07-06T01:27:16.694Z,940.88
2017-07-06T01:27:44.810Z,940.89
2017-07-06T01:28:12.888Z,940.87
2017-07-06T01:28:41.037Z,940.85
2017-07-06T01:29:09.150Z,940.87
2017-07-06T01:29:37.277Z,940.84
2017-07-06T01:30:05.409Z,940.84
2017-07-06T01:30:33.411Z,940.81
2017-07-06T01:31:01.621Z,940.79
2017-07-06T01:31:29.829Z,940.79
2017-07-06T01:31:58.012Z,940.78
2017-07-06T01:32:26.236Z,940.78
2017-07-06T01:32:54.262Z,940.78
2017-07-06T01:33:22.455Z,940.81
2017-07-06T01:33:50.237Z,940.78
2017-07-06T01:34:18.369Z,940.83
2017-07-06T01:34:46.498Z,940.8
2017-07-06T01:35:14.470Z,940.8
2017-07-06T01:35:42.675Z,940.82
2017-07-06T01:36:10.746Z,940.8
2017-07-06T01:36:38.929Z,940.79
2017-07-06T01:37:07.107Z,940.78
2017-07-06T01:37:35.003Z,940.81
2017-07-06T01:38:03.089Z,940.78
2017-07-06T01:38:31.212Z,940.78
2017-07-06T01:38:59.377Z,940.81
2017-07-06T01:39:27.562Z,940.81
2017-07-06T01:39:55.543Z,940.79
2017-07-06T01:40:23.744Z,940.79
2017-07-06T01:40:51.826Z,940.77
2017-07-06T01:41:19.877Z,940.81
2017-07-06T01:41:47.888Z,940.81
2017-07-06T01:42:16.015Z,940.78
2017-07-06T01:42:44.316Z,940.78
2017-07-06T01:43:12.445Z,940.77
2017-07-06T01:43:40.687Z,940.77
2017-07-06T01:44:08.724Z,940.77
2017-07-06T01:44:36.835Z,940.76
2017-07-06T01:45:04.881Z,940.74
2017-07-06T01:45:32.900Z,940.77
2017-07-06T01:46:00.936Z,940.76
2017-07-06T01:46:29.158Z,940.77
2017-07-06T01:46:57.343Z,940.79
2017-07-06T01:47:25.327Z,940.79
2017-07-06T01:47:53.571Z,940.77
2017-07-06T01:48:21.658Z,940.76
2017-07-06T01:48:49.906Z,940.78
2017-07-06T01:49:18.072Z,940.77
2017-07-06T01:49:46.293Z,940.77
2017-07-06T01:50:14.455Z,940.76
2017-07-06T01:50:42.550Z,940.76
2017-07-06T01:51:10.648Z,940.76
2017-07-06T01:51:38.881Z,940.75
2017-07-06T01:52:07.186Z,940.76
2017-07-06T01:52:35.360Z,940.77
2017-07-06T01:53:03.461Z,940.75
2017-07-06T01:53:31.554Z,940.75
2017-07-06T01:53:59.587Z,940.76
2017-07-06T01:54:27.807Z,940.77
2017-07-06T01:54:55.953Z,940.77
2017-07-06T01:55:24.071Z,940.76
2017-07-06T01:55:52.264Z,940.76
2017-07-06T01:56:20.229Z,940.76
2017-07-06T01:56:48.318Z,940.75
2017-07-06T01:57:16.385Z,940.78
2017-07-06T01:57:44.559Z,940.79
2017-07-06T01:58:12.380Z,940.77
2017-07-06T01:58:40.571Z,940.79
2017-07-06T01:59:08.377Z,940.77
2017-07-06T01:59:36.352Z,940.72
2017-07-06T02:00:04.466Z,940.73
2017-07-06T02:00:32.334Z,940.77
2017-07-06T02:01:00.540Z,940.75
2017-07-06T02:01:28.666Z,940.75
2017-07-06T02:01:56.835Z,940.76
2017-07-06T02:02:24.816Z,940.72
2017-07-06T02:02:53.088Z,940.78
2017-07-06T02:03:21.168Z,940.75
2017-07-06T02:03:49.240Z,940.75
2017-07-06T02:04:17.299Z,940.74
2017-07-06T02:04:45.500Z,940.74
2017-07-06T02:05:13.675Z,940.76
2017-07-06T02:05:41.775Z,940.72
2017-07-06T02:06:09.994Z,940.73
2017-07-06T02:06:38.068Z,940.72
2017-07-06T02:07:06.177Z,940.73
2017-07-06T02:07:34.177Z,940.7
2017-07-06T02:08:02.489Z,940.72
2017-07-06T02:08:30.545Z,940.72
2017-07-06T02:08:58.772Z,940.71
2017-07-06T02:09:26.877Z,940.67
2017-07-06T02:09:54.950Z,940.67
2017-07-06T02:10:23.040Z,940.69
2017-07-06T02:10:51.040Z,940.69
2017-07-06T02:11:19.064Z,940.69
2017-07-06T02:11:47.239Z,940.67
2017-07-06T02:12:15.269Z,940.68
2017-07-06T02:12:43.247Z,940.72
2017-07-06T02:13:11.546Z,940.68
2017-07-06T02:13:39.566Z,940.69
2017-07-06T02:14:07.809Z,940.7
2017-07-06T02:14:35.889Z,940.69
2017-07-06T02:15:03.987Z,940.67
2017-07-06T02:15:31.996Z,940.67
2017-07-06T02:16:00.206Z,940.68
2017-07-06T02:16:28.304Z,940.67
2017-07-06T02:16:56.459Z,940.71
2017-07-06T02:17:24.456Z,940.74
2017-07-06T02:17:52.682Z,940.73
2017-07-06T02:18:20.705Z,940.71
2017-07-06T02:18:48.804Z,940.73
2017-07-06T02:19:16.920Z,940.72
2017-07-06T02:19:45.041Z,940.7
2017-07-06T02:20:13.138Z,940.71
2017-07-06T02:20:41.340Z,940.73
2017-07-06T02:21:09.444Z,940.72
2017-07-06T02:21:37.300Z,940.74
2017-07-06T02:22:05.341Z,940.71
2017-07-06T02:22:33.390Z,940.73
2017-07-06T02:23:01.603Z,940.69
2017-07-06T02:23:29.620Z,940.71
2017-07-06T02:23:57.733Z,940.69
2017-07-06T02:24:25.727Z,940.7
2017-07-06T02:24:53.851Z,940.73
2017-07-06T02:25:21.932Z,940.72
2017-07-06T02:25:50.034Z,940.72
2017-07-06T02:26:18.254Z,940.71
2017-07-06T02:26:46.355Z,940.71
2017-07-06T02:27:14.582Z,940.71
2017-07-06T02:27:42.804Z,940.67
2017-07-06T02:28:10.983Z,940.71
2017-07-06T02:28:39.087Z,940.64
2017-07-06T02:29:07.273Z,940.69
2017-07-06T02:29:35.378Z,940.67
2017-07-06T02:30:03.519Z,940.68
2017-07-06T02:30:31.721Z,940.67
2017-07-06T02:30:59.833Z,940.65
2017-07-06T02:31:27.802Z,940.67
2017-07-06T02:31:56.027Z,940.69
2017-07-06T02:32:23.969Z,940.68
2017-07-06T02:32:52.145Z,940.64
2017-07-06T02:33:20.571Z,940.67
2017-07-06T02:33:48.720Z,940.69
2017-07-06T02:34:16.687Z,940.68
2017-07-06T02:34:44.832Z,940.67
2017-07-06T02:35:13.020Z,940.64
2017-07-06T02:35:41.234Z,940.65
2017-07-06T02:36:09.340Z,940.64
2017-07-06T02:36:37.426Z,940.66
2017-07-06T02:37:05.515Z,940.63
2017-07-06T02:37:33.605Z,940.62
2017-07-06T02:38:01.521Z,940.62
2017-07-06T02:38:29.634Z,940.63
2017-07-06T02:38:57.725Z,940.6
2017-07-06T02:39:25.949Z,940.56
2017-07-06T02:39:53.878Z,940.58
2017-07-06T02:40:22.067Z,940.57
2017-07-06T02:40:50.170Z,940.58
2017-07-06T02:41:18.393Z,940.54
2017-07-06T02:41:46.636Z,940.56
2017-07-06T02:42:14.620Z,940.55
2017-07-06T02:42:42.713Z,940.54
2017-07-06T02:43:10.689Z,940.56
2017-07-06T02:43:39.221Z,940.55
2017-07-06T02:44:07.319Z,940.54
2017-07-06T02:44:35.511Z,940.55
2017-07-06T02:45:03.711Z,940.53
2017-07-06T02:45:31.837Z,940.56
2017-07-06T02:46:00.311Z,940.52
2017-07-06T02:46:28.518Z,940.55
2017-07-06T02:46:56.713Z,940.56
2017-07-06T02:47:24.724Z,940.51
2017-07-06T02:47:52.827Z,940.53
2017-07-06T02:48:20.853Z,940.53
2017-07-06T02:48:48.872Z,940.51
2017-07-06T02:49:17.413Z,940.49
2017-07-06T02:49:45.619Z,940.5
2017-07-06T02:50:13.783Z,940.51
2017-07-06T02:50:41.823Z,940.47
2017-07-06T02:51:09.842Z,940.51
2017-07-06T02:51:37.940Z,940.46
2017-07-06T02:52:06.075Z,940.47
2017-07-06T02:52:34.094Z,940.46
2017-07-06T02:53:02.271Z,940.52
2017-07-06T02:53:30.363Z,940.47
2017-07-06T02:53:58.563Z,940.45
2017-07-06T02:54:26.676Z,940.44
2017-07-06T02:54:54.768Z,940.51
2017-07-06T02:55:22.867Z,940.46
2017-07-06T02:55:50.840Z,940.45
2017-07-06T02:56:18.979Z,940.49
2017-07-06T02:56:47.199Z,940.47
2017-07-06T02:57:15.181Z,940.47
2017-07-06T02:57:43.097Z,940.47
2017-07-06T02:58:11.196Z,940.46
2017-07-06T02:58:39.385Z,940.46
2017-07-06T02:59:07.588Z,940.45
2017-07-06T02:59:35.690Z,940.43
2017-07-06T03:00:03.765Z,940.43
2017-07-06T03:00:31.847Z,940.45
2017-07-06T03:01:00.087Z,940.43
2017-07-06T03:01:28.205Z,940.4
2017-07-06T03:01:56.413Z,940.42
2017-07-06T03:02:24.603Z,940.4
2017-07-06T03:02:52.826Z,940.4
2017-07-06T03:03:21.038Z,940.43
2017-07-06T03:03:49.430Z,940.38
2017-07-06T03:04:17.523Z,940.39
2017-07-06T03:04:45.719Z,940.38
2017-07-06T03:05:13.887Z,940.39
2017-07-06T03:05:42.083Z,940.35
2017-07-06T03:06:10.280Z,940.36
2017-07-06T03:06:38.475Z,940.36
2017-07-06T03:07:06.733Z,940.34
2017-07-06T03:07:34.963Z,940.31
2017-07-06T03:08:03.038Z,940.33
2017-07-06T03:08:31.261Z,940.32
2017-07-06T03:08:59.473Z,940.33
2017-07-06T03:09:27.652Z,940.31
2017-07-06T03:09:55.725Z,940.3
2017-07-06T03:10:23.851Z,940.25
2017-07-06T03:10:52.032Z,940.27
2017-07-06T03:11:20.245Z,940.28
2017-07-06T03:11:48.356Z,940.25
2017-07-06T03:12:16.449Z,940.23
2017-07-06T03:12:44.615Z,940.26
2017-07-06T03:13:12.726Z,940.24
2017-07-06T03:13:40.939Z,940.26
2017-07-06T03:14:08.955Z,940.26
2017-07-06T03:14:37.018Z,940.23
2017-07-06T03:15:05.211Z,940.23
2017-07-06T03:15:33.426Z,940.23
2017-07-06T03:16:01.472Z,940.25
2017-07-06T03:16:29.673Z,940.24
2017-07-06T03:16:57.755Z,940.25
2017-07-06T03:17:26.034Z,940.21
2017-07-06T03:17:54.039Z,940.24
2017-07-06T03:18:22.146Z,940.24
2017-07-06T03:18:50.422Z,940.27
2017-07-06T03:19:18.613Z,940.23
2017-07-06T03:19:46.821Z,940.27
2017-07-06T03:20:14.805Z,940.28
2017-07-06T03:20:42.941Z,940.27
2017-07-06T03:21:11.154Z,940.27
2017-07-06T03:21:39.343Z,940.28
2017-07-06T03:22:07.411Z,940.28
2017-07-06T03:22:35.417Z,940.3
2017-07-06T03:23:03.537Z,940.28
2017-07-06T03:23:31.608Z,940.26
2017-07-06T03:23:59.998Z,940.3
2017-07-06T03:24:28.180Z,940.28
2017-07-06T03:24:56.388Z,940.27
2017-07-06T03:25:24.571Z,940.27
2017-07-06T03:25:52.782Z,940.25
2017-07-06T03:26:20.898Z,940.28
2017-07-06T03:26:49.099Z,940.27
2017-07-06T03:27:17.290Z,940.26
2017-07-06T03:27:45.403Z,940.23
2017-07-06T03:28:13.612Z,940.24
2017-07-06T03:28:41.724Z,940.22
2017-07-06T03:29:10.092Z,940.24
2017-07-06T03:29:38.092Z,940.22
2017-07-06T03:30:06.310Z,940.26
2017-07-06T03:30:34.546Z,940.25
2017-07-06T03:31:02.738Z,940.25
2017-07-06T03:31:30.762Z,940.24
2017-07-06T03:31:58.936Z,940.21
2017-07-06T03:32:27.101Z,940.18
2017-07-06T03:32:55.295Z,940.25
2017-07-06T03:33:23.415Z,940.18
2017-07-06T03:33:51.648Z,940.21
2017-07-06T03:34:19.876Z,940.18
2017-07-06T03:34:48.165Z,940.2
2017-07-06T03:35:16.329Z,940.16
2017-07-06T03:35:44.561Z,940.19
2017-07-06T03:36:12.760Z,940.16
2017-07-06T03:36:41.004Z,940.15
2017-07-06T03:37:09.104Z,940.16
2017-07-06T03:37:37.334Z,940.17
2017-07-06T03:38:05.506Z,940.14
2017-07-06T03:38:33.654Z,940.09
2017-07-06T03:39:01.870Z,940.17
2017-07-06T03:39:30.056Z,940.13
2017-07-06T03:39:58.028Z,940.12
2017-07-06T03:40:26.220Z,940.13
2017-07-06T03:40:54.171Z,940.16
2017-07-06T03:41:22.072Z,940.11
2017-07-06T03:41:50.107Z,940.14
2017-07-06T03:42:18.216Z,940.11
2017-07-06T03:42:46.323Z,940.15
2017-07-06T03:43:14.504Z,940.11
2017-07-06T03:43:42.505Z,940.14
2017-07-06T03:44:10.493Z,940.12
2017-07-06T03:44:38.590Z,940.08
2017-07-06T03:45:06.702Z,940.09
2017-07-06T03:45:34.803Z,940.1
2017-07-06T03:46:02.903Z,940.08
2017-07-06T03:46:31.115Z,940.07
2017-07-06T03:46:59.273Z,940.07
2017-07-06T03:47:27.394Z,940.09
2017-07-06T03:47:55.486Z,940.06
2017-07-06T03:48:23.485Z,940.08
2017-07-06T03:48:51.459Z,940.08
2017-07-06T03:49:19.690Z,940.07
2017-07-06T03:49:47.890Z,940.08
2017-07-06T03:50:15.962Z,940.07
2017-07-06T03:50:44.174Z,940.07
2017-07-06T03:51:12.390Z,940.09
2017-07-06T03:51:40.393Z,940.05
2017-07-06T03:52:08.363Z,940.06
2017-07-06T03:52:36.565Z,940.06
2017-07-06T03:53:04.656Z,940.06
2017-07-06T03:53:32.683Z,940.03
2017-07-06T03:54:00.770Z,940.04
2017-07-06T03:54:28.969Z,940.04
2017-07-06T03:54:57.060Z,940.03
2017-07-06T03:55:25.065Z,940
2017-07-06T03:55:53.166Z,939.97
2017-07-06T03:56:21.277Z,940.01
2017-07-06T03:56:49.327Z,940.02
2017-07-06T03:57:17.493Z,939.99
2017-07-06T03:57:45.576Z,940.02
2017-07-06T03:58:13.661Z,940.01
2017-07-06T03:58:41.631Z,939.99
2017-07-06T03:59:09.840Z,940.03
2017-07-06T03:59:37.991Z,940.03
2017-07-06T04:00:06.249Z,939.97
2017-07-06T04:00:34.529Z,939.96
2017-07-06T04:01:02.639Z,940
2017-07-06T04:01:30.810Z,940.02
2017-07-06T04:01:59.008Z,940
2017-07-06T04:02:27.075Z,939.99
2017-07-06T04:02:55.078Z,940
2017-07-06T04:03:23.292Z,939.96
2017-07-06T04:03:51.306Z,940.01
2017-07-06T04:04:19.514Z,939.98
2017-07-06T04:04:47.624Z,939.94
2017-07-06T04:05:15.902Z,939.96
2017-07-06T04:05:43.981Z,939.94
2017-07-06T04:06:12.217Z,939.93
2017-07-06T04:06:40.213Z,939.89
2017-07-06T04:07:08.396Z,939.92
2017-07-06T04:07:36.537Z,939.9
2017-07-06T04:08:04.548Z,939.9
2017-07-06T04:08:32.573Z,939.88
2017-07-06T04:09:00.675Z,939.89
2017-07-06T04:09:28.875Z,939.87
2017-07-06T04:09:57.090Z,939.9
2017-07-06T04:10:25.334Z,939.88
2017-07-06T04:10:53.357Z,939.89
2017-07-06T04:11:21.598Z,939.86
2017-07-06T04:11:49.831Z,939.83
2017-07-06T04:12:17.966Z,939.85
2017-07-06T04:12:46.043Z,939.85
2017-07-06T04:13:14.150Z,939.85
2017-07-06T04:13:42.241Z,939.85
2017-07-06T04:14:10.351Z,939.87
2017-07-06T04:14:38.653Z,939.84
2017-07-06T04:15:06.704Z,939.81
2017-07-06T04:15:34.878Z,939.83
2017-07-06T04:16:02.943Z,939.84
2017-07-06T04:16:31.045Z,939.85
2017-07-06T04:16:59.209Z,939.83
2017-07-06T04:17:27.333Z,939.84
2017-07-06T04:17:55.569Z,939.83
2017-07-06T04:18:23.798Z,939.84
2017-07-06T04:18:51.892Z,939.81
2017-07-06T04:19:19.954Z,939.83
2017-07-06T04:19:48.124Z,939.84
2017-07-06T04:20:16.343Z,939.86
2017-07-06T04:20:44.438Z,939.86
2017-07-06T04:21:12.660Z,939.79
2017-07-06T04:21:40.807Z,939.84
2017-07-06T04:22:08.952Z,939.85
2017-07-06T04:22:36.816Z,939.85
2017-07-06T04:23:04.925Z,939.82
2017-07-06T04:23:33.044Z,939.84
2017-07-06T04:24:01.177Z,939.84
2017-07-06T04:24:29.498Z,939.8
2017-07-06T04:24:57.619Z,939.83
2017-07-06T04:25:25.841Z,939.79
2017-07-06T04:25:53.774Z,939.81
2017-07-06T04:26:21.882Z,939.79
2017-07-06T04:26:49.993Z,939.78
2017-07-06T04:27:18.032Z,939.8
2017-07-06T04:27:46.000Z,939.8
2017-07-06T04:28:14.181Z,939.8
2017-07-06T04:28:42.320Z,939.81
2017-07-06T04:29:10.408Z,939.78
2017-07-06T04:29:38.722Z,939.76
2017-07-06T04:30:06.959Z,939.78
2017-07-06T04:30:35.171Z,939.8
2017-07-06T04:31:03.391Z,939.78
2017-07-06T04:31:31.618Z,939.79
2017-07-06T04:31:59.820Z,939.79
2017-07-06T04:32:27.898Z,939.81
2017-07-06T04:32:56.127Z,939.78
2017-07-06T04:33:24.203Z,939.8
2017-07-06T04:33:52.366Z,939.8
2017-07-06T04:34:20.457Z,939.79
2017-07-06T04:34:48.744Z,939.79
2017-07-06T04:35:16.781Z,939.78
2017-07-06T04:35:44.800Z,939.78
2017-07-06T04:36:12.923Z,939.77
2017-07-06T04:36:40.995Z,939.79
2017-07-06T04:37:09.100Z,939.78
2017-07-06T04:37:37.286Z,939.78
2017-07-06T04:38:05.263Z,939.76
2017-07-06T04:38:33.458Z,939.79
2017-07-06T04:39:01.646Z,939.77
2017-07-06T04:39:29.860Z,939.76
2017-07-06T04:39:58.032Z,939.75
2017-07-06T04:40:26.132Z,939.76
2017-07-06T04:40:54.376Z,939.74
2017-07-06T04:41:22.472Z,939.75
2017-07-06T04:41:50.582Z,939.76
2017-07-06T04:42:18.718Z,939.75
2017-07-06T04:42:46.988Z,939.75
2017-07-06T04:43:15.195Z,939.72
2017-07-06T04:43:43.324Z,939.77
2017-07-06T04:44:11.578Z,939.75
2017-07-06T04:44:39.705Z,939.75
2017-07-06T04:45:07.946Z,939.73
2017-07-06T04:45:36.179Z,939.74
2017-07-06T04:46:04.443Z,939.73
2017-07-06T04:46:32.586Z,939.7
2017-07-06T04:47:00.812Z,939.72
2017-07-06T04:47:29.022Z,939.7
2017-07-06T04:47:56.900Z,939.71
2017-07-06T04:48:24.926Z,939.73
2017-07-06T04:48:52.988Z,939.7
2017-07-06T04:49:21.190Z,939.69
2017-07-06T04:49:49.547Z,939.72
2017-07-06T04:50:17.699Z,939.67
2017-07-06T04:50:45.686Z,939.71
2017-07-06T04:51:13.915Z,939.67
2017-07-06T04:51:41.999Z,939.65
2017-07-06T04:52:10.101Z,939.68
2017-07-06T04:52:38.344Z,939.67
2017-07-06T04:53:06.393Z,939.69
2017-07-06T04:53:34.561Z,939.7
2017-07-06T04:54:02.491Z,939.7
2017-07-06T04:54:30.635Z,939.68
2017-07-06T04:54:58.812Z,939.69
2017-07-06T04:55:26.931Z,939.69
2017-07-06T04:55:55.063Z,939.68
2017-07-06T04:56:23.081Z,939.68
2017-07-06T04:56:51.233Z,939.68
2017-07-06T04:57:19.495Z,939.64
2017-07-06T04:57:47.740Z,939.68
2017-07-06T04:58:15.939Z,939.66
2017-07-06T04:58:44.046Z,939.65
2017-07-06T04:59:11.940Z,939.65
2017-07-06T04:59:40.062Z,939.66
2017-07-06T05:00:08.387Z,939.65
2017-07-06T05:00:36.499Z,939.66
2017-07-06T05:01:04.563Z,939.68
2017-07-06T05:01:32.661Z,939.62
2017-07-06T05:02:00.659Z,939.62
2017-07-06T05:02:28.646Z,939.61
2017-07-06T05:02:56.771Z,939.64
2017-07-06T05:03:24.786Z,939.65
2017-07-06T05:03:52.918Z,939.62
2017-07-06T05:04:21.068Z,939.62
2017-07-06T05:04:49.265Z,939.61
2017-07-06T05:05:17.382Z,939.61
2017-07-06T05:05:45.251Z,939.59
2017-07-06T05:06:13.270Z,939.6
2017-07-06T05:06:41.378Z,939.61
2017-07-06T05:07:09.554Z,939.59
2017-07-06T05:07:37.735Z,939.62
2017-07-06T05:08:05.753Z,939.6
2017-07-06T05:08:33.981Z,939.6
2017-07-06T05:09:02.187Z,939.58
2017-07-06T05:09:30.354Z,939.59
2017-07-06T05:09:58.376Z,939.61
2017-07-06T05:10:26.592Z,939.61
2017-07-06T05:10:54.481Z,939.63
2017-07-06T05:11:22.680Z,939.62
2017-07-06T05:11:50.806Z,939.68
2017-07-06T05:12:18.879Z,939.65
2017-07-06T05:12:47.077Z,939.67
2017-07-06T05:13:15.159Z,939.67
2017-07-06T05:13:43.235Z,939.65
2017-07-06T05:14:11.396Z,939.65
2017-07-06T05:14:39.416Z,939.67
2017-07-06T05:15:07.522Z,939.66
2017-07-06T05:15:35.732Z,939.66
2017-07-06T05:16:03.971Z,939.69
2017-07-06T05:16:32.213Z,939.67
2017-07-06T05:17:00.372Z,939.65
2017-07-06T05:17:28.370Z,939.67
2017-07-06T05:17:56.388Z,939.68
2017-07-06T05:18:24.510Z,939.68
2017-07-06T05:18:52.509Z,939.64
2017-07-06T05:19:20.422Z,939.64
2017-07-06T05:19:48.545Z,939.65
2017-07-06T05:20:16.876Z,939.66
2017-07-06T05:20:44.983Z,939.61
2017-07-06T05:21:13.194Z,939.64
2017-07-06T05:21:41.113Z,939.64
2017-07-06T05:22:09.222Z,939.6
2017-07-06T05:22:37.405Z,939.61
2017-07-06T05:23:05.498Z,939.64
2017-07-06T05:23:33.679Z,939.65
2017-07-06T05:24:01.669Z,939.68
2017-07-06T05:24:29.875Z,939.68
2017-07-06T05:24:57.903Z,939.68
2017-07-06T05:25:26.250Z,939.68
2017-07-06T05:25:54.453Z,939.67
2017-07-06T05:26:22.573Z,939.66
2017-07-06T05:26:50.703Z,939.65
2017-07-06T05:27:18.824Z,939.69
2017-07-06T05:27:46.965Z,939.69
2017-07-06T05:28:15.138Z,939.69
2017-07-06T05:28:43.239Z,939.65
2017-07-06T05:29:11.326Z,939.67
2017-07-06T05:29:39.563Z,939.69
2017-07-06T05:30:07.711Z,939.66
2017-07-06T05:30:36.157Z,939.67
2017-07-06T05:31:04.238Z,939.65
2017-07-06T05:31:32.472Z,939.65
2017-07-06T05:32:00.595Z,939.65
2017-07-06T05:32:28.799Z,939.66
2017-07-06T05:32:57.004Z,939.67
2017-07-06T05:33:25.092Z,939.65
2017-07-06T05:33:53.347Z,939.66
2017-07-06T05:34:21.425Z,939.63
2017-07-06T05:34:49.418Z,939.64
2017-07-06T05:35:17.632Z,939.66
2017-07-06T05:35:45.875Z,939.65
2017-07-06T05:36:14.096Z,939.64
2017-07-06T05:36:42.182Z,939.61
2017-07-06T05:37:10.295Z,939.63
2017-07-06T05:37:38.502Z,939.66
2017-07-06T05:38:06.611Z,939.63
2017-07-06T05:38:34.648Z,939.61
2017-07-06T05:39:02.861Z,939.62
2017-07-06T05:39:30.986Z,939.63
2017-07-06T05:39:59.202Z,939.64
2017-07-06T05:40:27.294Z,939.6
2017-07-06T05:40:55.510Z,939.57
2017-07-06T05:41:23.785Z,939.58
2017-07-06T05:41:52.036Z,939.59
2017-07-06T05:42:20.266Z,939.58
2017-07-06T05:42:48.385Z,939.57
2017-07-06T05:43:16.514Z,939.52
2017-07-06T05:43:44.538Z,939.51
2017-07-06T05:44:12.633Z,939.55
2017-07-06T05:44:40.745Z,939.52
2017-07-06T05:45:08.717Z,939.54
2017-07-06T05:45:36.960Z,939.49
2017-07-06T05:46:05.081Z,939.53
2017-07-06T05:46:33.309Z,939.5
2017-07-06T05:47:01.498Z,939.5
2017-07-06T05:47:29.753Z,939.51
2017-07-06T05:47:58.025Z,939.48
2017-07-06T05:48:26.238Z,939.49
2017-07-06T05:48:54.462Z,939.52
2017-07-06T05:49:22.568Z,939.49
2017-07-06T05:49:50.656Z,939.48
2017-07-06T05:50:18.718Z,939.5
2017-07-06T05:50:47.036Z,939.48
2017-07-06T05:51:15.109Z,939.46
2017-07-06T05:51:43.304Z,939.45